Time;durP1;ratioP1;P1;durP2;ratioP2;P2;SDS_P1;SDS_P2;PMS_P1;PMS_P2;Temp;Humidity;BMP_temperature;BMP_pressure;BME280_temperature;BME280_humidity;BME280_pressure;Samples;Min_cycle;Max_cycle;Signal;HPM_P1;HPM_P2
2023/06/14 00:01:34;;;;;;;5.85;3.83;;;16.50;99.90;;;;;;4997917;28;20029;-77
2023/06/14 00:04:01;;;;;;;6.55;4.32;;;16.50;99.90;;;;;;5002841;28;20651;-77
2023/06/14 00:06:28;;;;;;;7.10;4.80;;;16.60;99.90;;;;;;5002527;28;20049;-76
2023/06/14 00:08:54;;;;;;;4.35;3.85;;;16.50;99.90;;;;;;4977280;28;20019;-78
2023/06/14 00:11:20;;;;;;;8.27;4.90;;;16.60;99.90;;;;;;4993508;28;21061;-76
2023/06/14 00:13:46;;;;;;;6.95;4.72;;;16.60;99.90;;;;;;4998046;28;20058;-76
2023/06/14 00:16:12;;;;;;;7.82;5.07;;;16.60;99.90;;;;;;4997692;28;20402;-76
2023/06/14 00:18:38;;;;;;;8.40;5.25;;;16.60;99.90;;;;;;4997859;28;20031;-76
2023/06/14 00:21:04;;;;;;;7.50;4.95;;;16.70;99.90;;;;;;4997942;28;20046;-77
2023/06/14 00:23:30;;;;;;;6.95;5.00;;;16.60;99.90;;;;;;4997880;28;20068;-76
2023/06/14 00:25:56;;;;;;;6.35;4.75;;;16.70;99.90;;;;;;4997590;28;20018;-76
2023/06/14 00:28:22;;;;;;;5.47;4.53;;;16.70;99.90;;;;;;4997862;28;20026;-77
2023/06/14 00:30:48;;;;;;;4.90;4.22;;;16.70;99.90;;;;;;4997669;28;20030;-78
2023/06/14 00:33:13;;;;;;;7.18;4.80;;;16.70;99.90;;;;;;4997751;28;20041;-76
2023/06/14 00:35:39;;;;;;;6.65;4.30;;;16.70;99.90;;;;;;4997785;28;20061;-76
2023/06/14 00:38:05;;;;;;;6.45;4.70;;;16.70;99.90;;;;;;4997800;28;20122;-77
2023/06/14 00:40:31;;;;;;;6.05;4.63;;;16.70;99.90;;;;;;4980084;28;20046;-77
2023/06/14 00:42:56;;;;;;;8.23;4.72;;;16.80;99.90;;;;;;4997697;28;20069;-77
2023/06/14 00:45:22;;;;;;;5.82;4.32;;;16.80;99.90;;;;;;4980068;28;20081;-76
2023/06/14 00:47:52;;;;;;;10.85;4.65;;;16.80;99.90;;;;;;4979980;28;20407;-76
2023/06/14 00:50:19;;;;;;;6.43;4.20;;;16.90;99.90;;;;;;4997409;28;20457;-77
2023/06/14 00:52:44;;;;;;;6.35;4.35;;;16.90;99.90;;;;;;4997096;28;20037;-77
2023/06/14 00:55:10;;;;;;;5.47;4.53;;;16.80;99.90;;;;;;4979997;28;20034;-78
2023/06/14 00:57:37;;;;;;;5.68;4.30;;;16.80;99.90;;;;;;4997278;28;20045;-76
2023/06/14 01:00:08;;;;;;;5.13;4.30;;;16.80;99.90;;;;;;4997315;28;20109;-76
2023/06/14 01:02:36;;;;;;;5.32;4.43;;;16.80;99.90;;;;;;4976530;28;20046;-76
2023/06/14 01:05:02;;;;;;;5.40;4.63;;;16.90;99.90;;;;;;4980506;28;20410;-76
2023/06/14 01:07:28;;;;;;;7.00;5.22;;;16.90;99.90;;;;;;5017067;28;20033;-75
2023/06/14 01:10:08;;;;;;;8.30;5.20;;;16.90;99.90;;;;;;5017080;28;20018;-76
2023/06/14 01:13:01;;;;;;;8.23;4.57;;;16.90;99.90;;;;;;5011785;28;20026;-76
2023/06/14 01:15:30;;;;;;;6.78;5.28;;;16.90;99.90;;;;;;4998486;28;20076;-76
2023/06/14 01:18:02;;;;;;;7.55;5.63;;;17.00;99.90;;;;;;5016770;28;20030;-75
2023/06/14 01:20:29;;;;;;;7.88;5.85;;;17.00;99.90;;;;;;5017076;28;20425;-76
2023/06/14 01:22:55;;;;;;;9.13;6.43;;;17.00;99.90;;;;;;5016989;28;20022;-77
2023/06/14 01:25:26;;;;;;;11.18;7.25;;;17.10;99.90;;;;;;5008041;28;20018;-77
2023/06/14 01:28:04;;;;;;;9.48;6.30;;;17.10;99.90;;;;;;5016739;28;20049;-76
2023/06/14 01:30:33;;;;;;;8.73;6.70;;;17.20;99.90;;;;;;5016711;28;20088;-76
2023/06/14 01:32:59;;;;;;;12.85;7.70;;;17.20;99.90;;;;;;5011605;28;20026;-75
2023/06/14 01:35:25;;;;;;;12.00;7.32;;;17.20;99.90;;;;;;4999155;28;20022;-75
2023/06/14 01:37:52;;;;;;;9.23;6.57;;;17.30;99.90;;;;;;5016928;28;20429;-76
2023/06/14 01:40:19;;;;;;;9.32;7.13;;;17.30;99.90;;;;;;4999009;28;20022;-75
2023/06/14 01:42:48;;;;;;;10.10;6.95;;;17.30;99.90;;;;;;5016812;28;20022;-75
2023/06/14 01:45:16;;;;;;;11.90;6.95;;;17.30;99.90;;;;;;5016386;28;20022;-76
2023/06/14 01:47:43;;;;;;;10.38;6.30;;;17.40;99.90;;;;;;5016990;28;20018;-75
2023/06/14 01:50:09;;;;;;;9.13;7.15;;;17.30;99.90;;;;;;4991041;28;20037;-75
2023/06/14 01:52:36;;;;;;;9.93;7.05;;;17.30;99.90;;;;;;5016719;28;20022;-76
2023/06/14 01:55:02;;;;;;;9.40;7.07;;;17.30;99.90;;;;;;5016501;28;20097;-76
2023/06/14 01:57:28;;;;;;;8.23;6.72;;;17.30;99.90;;;;;;5016469;28;20022;-76
2023/06/14 01:59:53;;;;;;;9.60;6.50;;;17.30;99.90;;;;;;4998699;28;20080;-76
2023/06/14 02:02:19;;;;;;;10.27;7.18;;;17.30;99.90;;;;;;5017481;28;20025;-76
2023/06/14 02:04:47;;;;;;;13.63;8.57;;;17.40;99.90;;;;;;5028004;28;20052;-76
2023/06/14 02:07:13;;;;;;;12.05;7.82;;;17.40;99.90;;;;;;5000504;28;20482;-76
2023/06/14 02:09:40;;;;;;;12.20;9.35;;;17.30;99.90;;;;;;5000276;28;20037;-76
2023/06/14 02:12:06;;;;;;;15.38;10.13;;;17.30;99.90;;;;;;4998959;28;20019;-76
2023/06/14 02:14:33;;;;;;;14.50;9.52;;;17.40;99.90;;;;;;5000163;28;20077;-76
2023/06/14 02:17:00;;;;;;;12.85;10.45;;;17.40;99.90;;;;;;4982581;28;20479;-75
2023/06/14 02:19:26;;;;;;;20.33;9.98;;;17.40;99.90;;;;;;5000603;28;20483;-76
2023/06/14 02:21:52;;;;;;;18.20;10.93;;;17.40;99.90;;;;;;5000271;28;20046;-77
2023/06/14 02:24:17;;;;;;;16.27;10.70;;;17.40;99.90;;;;;;4982658;28;20022;-75
2023/06/14 02:26:43;;;;;;;12.90;10.27;;;17.40;99.90;;;;;;4999976;28;20094;-76
2023/06/14 02:29:12;;;;;;;16.92;11.10;;;17.40;99.90;;;;;;4987396;28;20022;-75
2023/06/14 02:31:38;;;;;;;12.23;10.18;;;17.40;99.90;;;;;;4999472;28;20544;-76
2023/06/14 02:34:04;;;;;;;14.07;10.25;;;17.40;99.90;;;;;;5000223;28;20022;-76
2023/06/14 02:36:30;;;;;;;16.42;10.07;;;17.40;99.90;;;;;;4999882;28;20049;-78
2023/06/14 02:38:57;;;;;;;13.73;10.05;;;17.40;99.90;;;;;;5000104;28;20026;-76
2023/06/14 02:41:24;;;;;;;15.77;11.02;;;17.40;99.90;;;;;;4984447;28;20080;-77
2023/06/14 02:43:49;;;;;;;15.73;10.57;;;17.40;99.90;;;;;;4984034;28;20029;-76
2023/06/14 02:46:15;;;;;;;15.18;10.50;;;17.30;99.90;;;;;;4999584;28;20022;-76
2023/06/14 02:48:41;;;;;;;13.68;8.80;;;17.30;99.90;;;;;;4999646;28;20114;-76
2023/06/14 02:51:08;;;;;;;14.60;11.05;;;17.30;99.90;;;;;;4999741;28;20483;-76
2023/06/14 02:53:34;;;;;;;16.15;10.82;;;17.30;99.90;;;;;;4999554;28;20079;-75
2023/06/14 02:56:00;;;;;;;15.50;10.55;;;17.30;99.90;;;;;;4988815;28;20483;-75
2023/06/14 02:58:26;;;;;;;21.90;12.48;;;17.40;99.90;;;;;;4999350;28;20057;-75
2023/06/14 03:00:54;;;;;;;16.67;11.82;;;17.30;99.90;;;;;;4998968;28;20030;-75
2023/06/14 03:03:21;;;;;;;19.02;11.57;;;17.30;99.90;;;;;;4990977;28;20030;-74
2023/06/14 03:05:49;;;;;;;17.42;10.70;;;17.40;99.90;;;;;;5004889;28;20052;-74
2023/06/14 03:08:19;;;;;;;17.35;11.98;;;17.30;99.90;;;;;;4974564;28;20028;-76
2023/06/14 03:10:48;;;;;;;19.17;12.45;;;17.30;99.90;;;;;;4993023;28;20113;-75
2023/06/14 03:13:15;;;;;;;16.02;11.48;;;17.40;99.90;;;;;;4999273;28;20511;-74
2023/06/14 03:15:42;;;;;;;17.80;11.70;;;17.40;99.90;;;;;;4986123;28;20030;-75
2023/06/14 03:18:11;;;;;;;17.15;11.90;;;17.40;99.90;;;;;;4987218;28;20497;-75
2023/06/14 03:20:37;;;;;;;17.90;11.23;;;17.40;99.90;;;;;;4999051;28;20437;-73
2023/06/14 03:23:04;;;;;;;17.13;11.73;;;17.40;99.90;;;;;;4999037;28;20105;-75
2023/06/14 03:25:31;;;;;;;17.65;12.23;;;17.40;99.90;;;;;;4998968;28;20026;-74
2023/06/14 03:27:57;;;;;;;15.75;11.02;;;17.40;99.90;;;;;;4998979;28;20023;-73
2023/06/14 03:30:22;;;;;;;14.93;11.63;;;17.40;99.90;;;;;;4998894;28;20034;-73
2023/06/14 03:32:48;;;;;;;20.20;10.73;;;17.40;99.90;;;;;;4998807;28;20501;-73
2023/06/14 03:35:17;;;;;;;15.13;11.43;;;17.40;99.90;;;;;;4998904;28;20064;-73
2023/06/14 03:37:46;;;;;;;14.38;11.35;;;17.40;99.90;;;;;;4998687;28;20030;-74
2023/06/14 03:40:14;;;;;;;21.65;11.65;;;17.40;99.90;;;;;;4987943;28;20026;-74
2023/06/14 03:42:40;;;;;;;15.35;10.98;;;17.40;99.90;;;;;;4998673;28;20030;-73
2023/06/14 03:45:08;;;;;;;18.38;12.07;;;17.30;99.90;;;;;;4987920;28;20482;-74
2023/06/14 03:47:35;;;;;;;13.85;11.10;;;17.30;99.90;;;;;;4998821;28;20457;-73
2023/06/14 03:50:04;;;;;;;19.55;11.43;;;17.30;99.90;;;;;;4988071;28;20029;-74
2023/06/14 03:52:33;;;;;;;14.93;11.18;;;17.30;99.90;;;;;;4998553;28;20061;-74
2023/06/14 03:55:00;;;;;;;15.80;11.95;;;17.30;99.90;;;;;;4998262;28;20085;-74
2023/06/14 03:57:26;;;;;;;14.00;9.93;;;17.30;99.90;;;;;;4998496;28;20074;-75
2023/06/14 03:59:52;;;;;;;17.30;11.20;;;17.30;99.90;;;;;;4998106;28;20549;-74
2023/06/14 04:02:17;;;;;;;16.70;11.63;;;17.30;99.90;;;;;;4998348;28;20030;-74
2023/06/14 04:04:45;;;;;;;19.98;12.25;;;17.30;99.90;;;;;;4986030;28;20085;-74
2023/06/14 04:07:12;;;;;;;14.50;11.77;;;17.30;99.90;;;;;;4998036;28;20019;-74
2023/06/14 04:09:38;;;;;;;18.90;11.65;;;17.30;99.90;;;;;;4998208;28;20014;-74
2023/06/14 04:12:05;;;;;;;14.88;12.45;;;17.30;99.90;;;;;;4977375;28;20047;-73
2023/06/14 04:14:32;;;;;;;16.23;11.20;;;17.30;99.90;;;;;;5001871;28;20494;-73
2023/06/14 04:16:58;;;;;;;17.73;10.88;;;17.30;99.90;;;;;;4980374;28;20026;-73
2023/06/14 04:19:24;;;;;;;16.48;11.30;;;17.30;99.90;;;;;;4997798;28;20097;-73
2023/06/14 04:21:50;;;;;;;15.05;11.63;;;17.30;99.90;;;;;;4998039;28;20027;-74
2023/06/14 04:24:16;;;;;;;13.68;10.52;;;17.30;99.90;;;;;;4997912;28;20025;-74
2023/06/14 04:26:44;;;;;;;19.15;11.75;;;17.30;99.90;;;;;;4997734;28;20023;-73
2023/06/14 04:29:14;;;;;;;17.85;11.48;;;17.30;99.90;;;;;;4997812;28;20022;-73
2023/06/14 04:31:40;;;;;;;16.52;12.85;;;17.40;99.90;;;;;;4997789;28;20088;-73
2023/06/14 04:34:05;;;;;;;16.65;12.75;;;17.40;99.90;;;;;;4980277;28;20407;-75
2023/06/14 04:36:34;;;;;;;18.48;12.55;;;17.50;99.90;;;;;;4997845;28;20093;-74
2023/06/14 04:39:03;;;;;;;14.10;11.75;;;17.40;99.90;;;;;;4980125;28;20042;-75
2023/06/14 04:41:30;;;;;;;18.88;12.50;;;17.50;99.90;;;;;;4997461;28;20380;-75
2023/06/14 04:44:01;;;;;;;21.17;13.30;;;17.50;99.90;;;;;;4979989;28;20046;-74
2023/06/14 04:46:32;;;;;;;17.20;12.30;;;17.50;99.90;;;;;;4997352;28;20022;-74
2023/06/14 04:49:02;;;;;;;21.23;13.90;;;17.50;99.90;;;;;;4997582;28;20022;-74
2023/06/14 04:51:29;;;;;;;17.52;13.68;;;17.60;99.90;;;;;;4997623;28;20030;-74
2023/06/14 04:53:58;;;;;;;21.00;12.27;;;17.50;99.90;;;;;;4997553;28;20113;-74
2023/06/14 04:56:27;;;;;;;16.70;13.15;;;17.60;99.90;;;;;;4980132;28;20066;-73
2023/06/14 04:58:53;;;;;;;21.23;14.02;;;17.60;99.90;;;;;;4997402;28;20505;-74
2023/06/14 05:01:21;;;;;;;21.55;14.68;;;17.60;99.90;;;;;;4997044;28;20022;-75
2023/06/14 05:03:49;;;;;;;21.05;13.63;;;17.60;99.90;;;;;;4979782;28;20015;-76
2023/06/14 05:06:15;;;;;;;19.05;13.05;;;17.60;99.90;;;;;;4997266;28;20049;-73
2023/06/14 05:08:41;;;;;;;19.20;13.65;;;17.70;99.90;;;;;;4996788;28;20076;-74
2023/06/14 05:11:07;;;;;;;24.20;14.77;;;17.70;99.90;;;;;;4997060;28;20034;-75
2023/06/14 05:13:34;;;;;;;26.80;16.05;;;17.70;99.90;;;;;;4999508;28;20085;-73
2023/06/14 05:16:00;;;;;;;19.92;14.77;;;17.70;99.90;;;;;;5001954;28;20601;-74
2023/06/14 05:18:26;;;;;;;27.17;14.80;;;17.70;99.90;;;;;;4997350;28;20022;-75
2023/06/14 05:20:52;;;;;;;25.17;15.40;;;17.70;99.90;;;;;;4997377;28;20033;-73
2023/06/14 05:23:17;;;;;;;20.85;14.75;;;17.80;99.90;;;;;;4979768;28;21462;-75
2023/06/14 05:25:44;;;;;;;25.02;14.77;;;17.80;99.90;;;;;;4987115;28;20073;-74
2023/06/14 05:28:10;;;;;;;21.73;13.77;;;17.80;99.90;;;;;;4979166;28;20026;-73
2023/06/14 05:30:39;;;;;;;18.35;14.98;;;17.80;99.90;;;;;;4996838;28;20026;-74
2023/06/14 05:33:05;;;;;;;19.23;12.55;;;17.90;99.90;;;;;;4995377;28;20022;-74
2023/06/14 05:35:30;;;;;;;22.52;16.55;;;17.90;99.90;;;;;;4995329;28;20386;-74
2023/06/14 05:37:56;;;;;;;26.40;16.27;;;17.90;99.90;;;;;;4999007;28;20023;-74
2023/06/14 05:40:22;;;;;;;22.60;15.93;;;18.00;99.90;;;;;;5000271;28;20088;-73
2023/06/14 05:42:47;;;;;;;22.10;15.23;;;18.00;99.90;;;;;;5000986;28;20033;-74
2023/06/14 05:45:15;;;;;;;23.05;16.00;;;18.00;99.90;;;;;;5000665;28;20027;-74
2023/06/14 05:47:41;;;;;;;22.83;14.48;;;18.10;99.90;;;;;;5000827;28;20015;-73
2023/06/14 05:50:09;;;;;;;21.95;14.07;;;18.10;99.90;;;;;;5000799;28;20027;-74
2023/06/14 05:52:36;;;;;;;19.20;14.70;;;18.20;99.90;;;;;;5000622;28;20048;-77
2023/06/14 05:55:03;;;;;;;20.40;15.02;;;18.20;99.90;;;;;;4984432;28;20041;-77
2023/06/14 05:57:28;;;;;;;17.70;12.80;;;18.20;99.90;;;;;;4992712;28;20074;-76
2023/06/14 05:59:54;;;;;;;15.80;13.52;;;18.30;99.90;;;;;;4978998;28;20586;-76
2023/06/14 06:02:20;;;;;;;22.90;14.02;;;18.30;99.90;;;;;;5001309;28;20486;-76
2023/06/14 06:04:46;;;;;;;22.48;14.25;;;18.30;99.90;;;;;;4999101;28;20018;-75
2023/06/14 06:07:11;;;;;;;20.85;15.48;;;18.40;99.90;;;;;;5002811;28;20034;-76
2023/06/14 06:09:37;;;;;;;18.40;13.63;;;18.40;99.90;;;;;;4998617;28;20022;-76
2023/06/14 06:12:06;;;;;;;20.35;14.05;;;18.40;99.90;;;;;;4985906;28;20053;-76
2023/06/14 06:14:32;;;;;;;18.83;13.60;;;18.40;99.90;;;;;;4999096;28;20513;-76
2023/06/14 06:16:58;;;;;;;20.25;14.02;;;18.40;99.90;;;;;;4982310;28;20018;-76
2023/06/14 06:19:24;;;;;;;17.85;13.57;;;18.40;99.90;;;;;;5002361;28;20085;-76
2023/06/14 06:21:50;;;;;;;18.58;13.63;;;18.50;99.90;;;;;;5003497;28;20026;-76
2023/06/14 06:24:16;;;;;;;20.45;14.00;;;18.50;99.90;;;;;;4999919;28;20042;-77
2023/06/14 06:26:41;;;;;;;19.30;13.95;;;18.50;99.90;;;;;;5005674;28;20026;-77
2023/06/14 06:29:07;;;;;;;16.60;14.15;;;18.50;99.90;;;;;;4980501;28;20034;-74
2023/06/14 06:31:33;;;;;;;19.60;13.07;;;18.50;99.90;;;;;;4998322;28;20038;-75
2023/06/14 06:33:58;;;;;;;24.05;13.63;;;18.50;99.90;;;;;;4998315;28;20025;-74
2023/06/14 06:36:24;;;;;;;18.63;13.25;;;18.50;99.90;;;;;;4998788;28;20031;-75
2023/06/14 06:38:50;;;;;;;20.20;14.88;;;18.60;99.90;;;;;;4981427;28;20030;-75
2023/06/14 06:41:16;;;;;;;25.35;12.95;;;18.60;99.90;;;;;;5000925;28;20030;-75
2023/06/14 06:43:42;;;;;;;16.90;13.48;;;18.60;99.90;;;;;;4981267;28;20023;-75
2023/06/14 06:46:07;;;;;;;19.08;13.65;;;18.60;99.90;;;;;;4997382;28;20146;-75
2023/06/14 06:48:33;;;;;;;19.00;13.73;;;18.60;99.90;;;;;;4999770;28;20398;-75
2023/06/14 06:50:59;;;;;;;16.17;13.80;;;18.60;99.90;;;;;;4997993;28;20032;-76
2023/06/14 06:53:25;;;;;;;24.30;14.32;;;18.60;99.90;;;;;;4998591;28;20033;-76
2023/06/14 06:55:50;;;;;;;16.60;13.40;;;18.60;99.90;;;;;;5001598;28;20033;-77
2023/06/14 06:58:16;;;;;;;19.23;13.02;;;18.60;99.90;;;;;;4998378;28;20483;-77
2023/06/14 07:00:42;;;;;;;20.33;14.45;;;18.60;99.90;;;;;;4995947;28;20027;-78
2023/06/14 07:03:08;;;;;;;21.90;13.43;;;18.60;99.90;;;;;;4998315;28;20023;-78
2023/06/14 07:05:33;;;;;;;18.55;13.45;;;18.60;99.90;;;;;;5002237;28;20419;-76
2023/06/14 07:07:59;;;;;;;18.77;14.43;;;18.60;99.90;;;;;;4998052;28;20026;-77
2023/06/14 07:10:25;;;;;;;20.83;13.23;;;18.60;99.90;;;;;;4999406;28;20030;-77
2023/06/14 07:12:51;;;;;;;23.80;14.55;;;18.70;99.90;;;;;;5001958;28;20026;-77
2023/06/14 07:15:17;;;;;;;17.50;12.27;;;18.70;99.90;;;;;;5002812;28;20030;-78
2023/06/14 07:17:42;;;;;;;19.75;13.40;;;18.80;99.90;;;;;;4999039;28;20030;-77
2023/06/14 07:20:11;;;;;;;17.85;11.85;;;18.80;99.90;;;;;;5000602;28;20104;-77
2023/06/14 07:22:38;;;;;;;18.63;13.52;;;18.80;99.90;;;;;;5000629;28;20023;-77
2023/06/14 07:25:04;;;;;;;22.95;12.90;;;18.80;99.90;;;;;;4998889;28;20077;-77
2023/06/14 07:27:30;;;;;;;21.38;12.77;;;18.80;99.90;;;;;;4994517;28;20022;-78
2023/06/14 07:29:56;;;;;;;28.23;15.10;;;18.80;99.90;;;;;;5000720;28;20026;-77
2023/06/14 07:32:21;;;;;;;18.27;12.82;;;18.70;99.90;;;;;;4997965;28;20032;-76
2023/06/14 07:34:47;;;;;;;17.73;12.23;;;18.70;99.90;;;;;;5001841;28;20847;-75
2023/06/14 07:37:12;;;;;;;17.02;12.65;;;18.70;99.90;;;;;;4999694;28;20023;-77
2023/06/14 07:39:38;;;;;;;15.88;12.57;;;18.70;99.90;;;;;;4997876;28;20031;-76
2023/06/14 07:42:04;;;;;;;19.45;12.45;;;18.70;99.90;;;;;;4996923;28;20512;-77
2023/06/14 07:44:33;;;;;;;18.95;14.57;;;18.70;99.90;;;;;;4995579;28;20022;-77
2023/06/14 07:46:59;;;;;;;18.50;14.07;;;18.70;99.90;;;;;;4997531;28;20021;-77
2023/06/14 07:49:26;;;;;;;17.73;13.75;;;18.70;99.90;;;;;;4978893;28;20038;-77
2023/06/14 07:51:51;;;;;;;19.70;12.68;;;18.80;99.90;;;;;;4997407;28;20045;-77
2023/06/14 07:54:17;;;;;;;19.65;13.45;;;18.80;99.90;;;;;;4996104;28;20089;-76
2023/06/14 07:56:43;;;;;;;19.90;12.93;;;18.90;99.90;;;;;;4997365;28;20376;-77
2023/06/14 07:59:08;;;;;;;18.63;12.95;;;18.90;99.90;;;;;;4994956;28;20026;-76
2023/06/14 08:01:34;;;;;;;17.25;12.88;;;18.90;99.90;;;;;;4996860;28;20054;-75
2023/06/14 08:04:00;;;;;;;16.67;12.98;;;18.90;99.90;;;;;;4995285;28;20107;-75
2023/06/14 08:06:26;;;;;;;20.98;11.95;;;18.90;99.90;;;;;;4994626;28;20088;-74
2023/06/14 08:08:52;;;;;;;15.65;13.85;;;18.90;99.90;;;;;;4998181;28;20030;-75
2023/06/14 08:11:18;;;;;;;20.38;12.85;;;18.90;99.90;;;;;;5018184;28;20052;-74
2023/06/14 08:13:43;;;;;;;18.10;11.40;;;19.00;99.90;;;;;;5016946;28;20033;-75
2023/06/14 08:16:10;;;;;;;18.88;13.43;;;19.10;99.90;;;;;;5018505;28;20026;-74
2023/06/14 08:18:36;;;;;;;20.13;12.73;;;19.10;99.90;;;;;;5018563;28;20017;-76
2023/06/14 08:21:02;;;;;;;20.80;12.60;;;19.10;99.90;;;;;;5016316;28;20461;-74
2023/06/14 08:23:28;;;;;;;19.13;14.02;;;19.10;99.90;;;;;;5020861;28;20030;-74
2023/06/14 08:25:54;;;;;;;17.23;12.13;;;19.20;99.90;;;;;;5016426;28;20023;-74
2023/06/14 08:28:20;;;;;;;21.73;13.00;;;19.30;99.90;;;;;;5021560;28;20021;-74
2023/06/14 08:30:46;;;;;;;19.52;13.77;;;19.40;99.90;;;;;;5015438;28;20033;-74
2023/06/14 08:33:12;;;;;;;21.77;11.80;;;19.60;99.90;;;;;;4999536;28;20026;-74
2023/06/14 08:35:39;;;;;;;18.23;11.50;;;19.80;99.90;;;;;;5018977;28;20052;-73
2023/06/14 08:38:05;;;;;;;16.27;11.55;;;20.10;99.90;;;;;;5016735;28;20033;-74
2023/06/14 08:40:31;;;;;;;14.15;10.50;;;20.30;99.90;;;;;;5015278;28;20038;-74
2023/06/14 08:42:57;;;;;;;16.58;9.73;;;20.50;99.90;;;;;;5019271;28;20104;-73
2023/06/14 08:45:25;;;;;;;18.13;11.15;;;20.70;99.90;;;;;;4999642;28;20076;-74
2023/06/14 08:47:51;;;;;;;14.73;10.32;;;20.70;99.90;;;;;;5017750;28;20100;-74
2023/06/14 08:50:31;;;;;;;17.33;10.27;;;20.80;99.90;;;;;;4997704;28;20026;-74
2023/06/14 08:53:02;;;;;;;16.77;10.40;;;20.90;99.90;;;;;;5016777;28;20029;-74
2023/06/14 08:55:30;;;;;;;14.10;9.55;;;20.90;99.90;;;;;;5017859;28;20034;-75
2023/06/14 08:57:59;;;;;;;13.02;9.30;;;20.90;99.90;;;;;;5015521;28;20026;-75
2023/06/14 09:00:26;;;;;;;15.27;9.95;;;20.80;99.90;;;;;;4997431;28;20030;-73
2023/06/14 09:02:57;;;;;;;14.23;9.77;;;20.80;99.90;;;;;;5018200;28;20355;-74
2023/06/14 09:05:24;;;;;;;14.10;9.63;;;20.80;99.90;;;;;;4998259;28;20077;-73
2023/06/14 09:07:50;;;;;;;15.70;9.80;;;20.80;99.90;;;;;;5019139;28;20025;-75
2023/06/14 09:10:17;;;;;;;14.93;11.45;;;20.80;99.90;;;;;;5014904;28;20038;-75
2023/06/14 09:12:43;;;;;;;20.30;10.57;;;20.80;99.90;;;;;;5017614;28;20017;-74
2023/06/14 09:15:10;;;;;;;14.35;11.23;;;21.00;99.90;;;;;;5018511;28;20041;-75
2023/06/14 09:17:36;;;;;;;14.00;10.00;;;21.20;99.90;;;;;;5020106;28;20049;-75
2023/06/14 09:20:10;;;;;;;14.68;10.32;;;21.40;99.90;;;;;;5022029;28;20026;-75
2023/06/14 09:22:39;;;;;;;16.05;10.07;;;21.60;99.90;;;;;;5015781;28;20025;-74
2023/06/14 09:25:06;;;;;;;16.25;10.63;;;21.60;99.90;;;;;;5017615;28;20076;-75
2023/06/14 09:27:32;;;;;;;12.25;9.13;;;21.70;99.90;;;;;;5021486;28;20022;-75
2023/06/14 09:29:58;;;;;;;13.70;9.32;;;21.80;99.90;;;;;;5022612;28;20995;-74
2023/06/14 09:32:25;;;;;;;13.95;9.57;;;21.60;99.90;;;;;;5001971;28;20022;-75
2023/06/14 09:34:51;;;;;;;14.45;10.02;;;21.70;99.90;;;;;;5019509;28;20084;-76
2023/06/14 09:37:30;;;;;;;13.45;8.98;;;21.90;99.90;;;;;;5019549;28;20054;-82
2023/06/14 09:39:57;;;;;;;13.77;8.45;;;22.10;99.90;;;;;;5002121;28;20113;-83
2023/06/14 09:42:25;;;;;;;11.63;9.20;;;22.10;99.90;;;;;;5003439;28;20029;-83
2023/06/14 09:44:53;;;;;;;13.90;9.45;;;22.20;99.90;;;;;;5000059;28;20022;-82
2023/06/14 09:47:19;;;;;;;14.75;9.23;;;22.40;99.90;;;;;;5019581;28;20048;-84
2023/06/14 09:49:45;;;;;;;14.27;9.32;;;22.40;99.90;;;;;;5018677;28;20030;-83
2023/06/14 09:52:18;;;;;;;17.05;8.65;;;22.40;99.90;;;;;;5019839;28;20029;-83
2023/06/14 09:54:52;;;;;;;17.90;8.25;;;22.40;99.90;;;;;;5020714;28;20022;-82
2023/06/14 09:57:22;;;;;;;20.75;8.15;;;22.40;99.90;;;;;;5022018;28;20034;-84
2023/06/14 09:59:52;;;;;;;20.25;8.57;;;22.50;99.90;;;;;;4998913;28;20050;-81
2023/06/14 10:02:28;;;;;;;16.10;8.95;;;22.40;99.90;;;;;;5022838;28;20037;-79
2023/06/14 10:05:15;;;;;;;13.20;8.85;;;22.50;99.90;;;;;;5018160;28;20100;-79
2023/06/14 10:07:55;;;;;;;15.48;8.82;;;22.80;99.90;;;;;;4975866;28;20054;-83
2023/06/14 10:10:21;;;;;;;16.52;9.27;;;22.80;99.90;;;;;;5003505;28;20053;-87
2023/06/14 10:12:47;;;;;;;11.90;8.82;;;22.80;99.90;;;;;;4997797;28;20049;-83
2023/06/14 10:15:46;;;;;;;14.18;8.88;;;22.70;99.90;;;;;;4981477;28;20031;-83
2023/06/14 10:18:33;;;;;;;12.23;8.48;;;22.70;99.90;;;;;;4984437;28;20057;-84
2023/06/14 10:21:08;;;;;;;15.90;9.30;;;22.40;99.90;;;;;;4980342;28;20049;-85
2023/06/14 10:23:41;;;;;;;13.52;9.15;;;22.30;99.90;;;;;;5000710;28;20025;-84
2023/06/14 10:26:06;;;;;;;16.13;8.60;;;22.40;99.90;;;;;;4981519;28;20022;-83
2023/06/14 10:28:33;;;;;;;12.43;8.50;;;22.50;99.90;;;;;;5002731;28;20037;-85
2023/06/14 10:31:10;;;;;;;17.23;9.80;;;22.60;99.90;;;;;;4980303;28;20479;-84
2023/06/14 10:33:41;;;;;;;11.70;8.40;;;22.80;99.90;;;;;;4999498;28;20046;-84
2023/06/14 10:36:08;;;;;;;15.82;7.97;;;22.90;99.90;;;;;;4985496;28;20057;-85
2023/06/14 10:38:37;;;;;;;15.55;8.32;;;23.00;99.90;;;;;;5001042;28;20026;-84
2023/06/14 10:41:04;;;;;;;15.85;10.07;;;23.20;99.90;;;;;;4980154;28;20124;-81
2023/06/14 10:43:30;;;;;;;19.60;8.13;;;23.40;99.90;;;;;;5000260;28;20029;-82
2023/06/14 10:46:23;;;;;;;12.98;7.57;;;23.50;99.90;;;;;;5000926;28;20030;-81
2023/06/14 10:48:49;;;;;;;14.43;8.25;;;23.60;99.90;;;;;;4997636;28;20023;-80
2023/06/14 10:51:21;;;;;;;12.52;8.68;;;23.80;99.90;;;;;;4982393;28;20032;-82
2023/06/14 10:53:51;;;;;;;12.15;7.18;;;24.00;99.90;;;;;;4995583;28;20022;-80
2023/06/14 10:56:30;;;;;;;12.73;7.97;;;24.30;99.90;;;;;;4981396;28;20033;-81
2023/06/14 10:58:59;;;;;;;9.30;7.03;;;24.40;99.90;;;;;;4984823;28;20046;-80
2023/06/14 11:01:42;;;;;;;13.15;7.45;;;24.50;99.90;;;;;;4998036;28;20249;-80
2023/06/14 11:04:11;;;;;;;13.18;7.40;;;24.30;99.90;;;;;;5000078;28;20088;-81
2023/06/14 11:06:46;;;;;;;12.85;8.18;;;24.00;99.90;;;;;;4998084;28;20536;-80
2023/06/14 11:09:43;;;;;;;12.73;8.18;;;23.90;99.90;;;;;;4995280;28;20026;-79
2023/06/14 11:12:11;;;;;;;18.35;7.72;;;24.00;99.90;;;;;;4966575;28;20061;-79
2023/06/14 11:14:38;;;;;;;12.13;6.97;;;24.30;99.90;;;;;;4997843;28;20128;-79
2023/06/14 11:17:04;;;;;;;14.98;7.57;;;24.40;99.90;;;;;;4980481;28;20058;-80
2023/06/14 11:19:31;;;;;;;13.75;7.50;;;24.50;99.90;;;;;;4979644;28;20088;-78
2023/06/14 11:21:57;;;;;;;11.80;7.13;;;24.40;99.90;;;;;;4996862;28;20045;-79
2023/06/14 11:24:23;;;;;;;10.75;7.75;;;24.60;99.90;;;;;;4997400;28;20376;-78
2023/06/14 11:26:48;;;;;;;10.80;8.00;;;24.80;99.90;;;;;;4980555;28;20026;-77
2023/06/14 11:29:16;;;;;;;12.18;7.22;;;24.90;99.90;;;;;;5001334;28;20034;-78
2023/06/14 11:31:45;;;;;;;10.93;6.43;;;25.00;99.90;;;;;;4998168;28;20023;-78
2023/06/14 11:34:12;;;;;;;11.10;7.47;;;24.80;99.90;;;;;;5002302;28;20449;-78
2023/06/14 11:36:38;;;;;;;11.00;7.55;;;24.80;99.90;;;;;;4997881;28;20031;-78
2023/06/14 11:39:09;;;;;;;10.75;7.13;;;25.10;99.90;;;;;;4998557;28;20035;-78
2023/06/14 11:41:38;;;;;;;;;;;25.00;99.90;;;;;;4998577;28;20490;-79
2023/06/14 11:44:05;;;;;;;11.65;7.00;;;24.80;99.90;;;;;;4997934;28;19952;-78
2023/06/14 11:46:31;;;;;;;11.57;7.32;;;24.90;99.90;;;;;;4980270;28;20427;-77
2023/06/14 11:48:57;;;;;;;8.68;7.18;;;25.20;99.90;;;;;;4978634;28;20018;-78
2023/06/14 11:51:23;;;;;;;13.45;8.55;;;25.30;99.90;;;;;;5002085;28;20056;-77
2023/06/14 11:53:49;;;;;;;13.77;7.68;;;24.90;99.90;;;;;;5004104;28;20082;-76
2023/06/14 11:56:15;;;;;;;14.55;7.88;;;24.70;99.90;;;;;;5002000;28;20129;-76
2023/06/14 11:58:43;;;;;;;12.95;7.30;;;25.00;99.90;;;;;;5002325;28;20395;-79
2023/06/14 12:01:09;;;;;;;11.48;7.20;;;25.10;99.90;;;;;;5001388;28;20033;-78
2023/06/14 12:03:35;;;;;;;10.38;6.65;;;24.80;99.90;;;;;;5005090;28;20032;-80
2023/06/14 12:06:08;;;;;;;13.40;7.13;;;24.60;99.90;;;;;;4995267;28;20125;-80
2023/06/14 12:08:38;;;;;;;14.27;7.40;;;24.30;99.90;;;;;;4999277;28;20054;-79
2023/06/14 12:11:06;;;;;;;10.30;6.03;;;24.10;99.90;;;;;;4996504;28;20026;-79
2023/06/14 12:13:31;;;;;;;12.88;7.22;;;24.20;99.90;;;;;;4997343;28;20027;-79
2023/06/14 12:15:57;;;;;;;12.02;7.18;;;24.60;99.90;;;;;;5000627;28;20033;-80
2023/06/14 12:18:35;;;;;;;9.85;6.63;;;24.90;99.90;;;;;;4998557;28;20034;-80
2023/06/14 12:21:02;;;;;;;15.52;7.07;;;25.10;99.90;;;;;;4998197;28;20479;-80
2023/06/14 12:23:48;;;;;;;12.55;7.45;;;25.10;99.90;;;;;;4999907;28;20088;-79
2023/06/14 12:26:18;;;;;;;11.50;6.95;;;25.10;99.90;;;;;;4998703;28;20086;-78
2023/06/14 12:28:45;;;;;;;;;;;24.90;99.90;;;;;;4997256;28;20045;-78
2023/06/14 12:31:13;;;;;;;11.20;7.15;;;24.90;99.90;;;;;;4998889;28;19956;-77
2023/06/14 12:33:39;;;;;;;9.18;6.18;;;25.00;99.90;;;;;;4997044;28;20399;-77
2023/06/14 12:36:06;;;;;;;11.95;6.50;;;25.20;99.90;;;;;;5000294;28;20029;-77